sensor_id;sensor_type;location;lat;lon;timestamp;pressure;altitude;pressure_sealevel;temperature;humidity
42671;BME280;28283;55.426;37.756;2024-03-08T00:00:02;99454.13;;;-4.31;68.77
42671;BME280;28283;55.426;37.756;2024-03-08T00:05:09;99455.00;;;-4.30;69.10
42671;BME280;28283;55.426;37.756;2024-03-08T00:10:10;99453.28;;;-4.31;69.31
42671;BME280;28283;55.426;37.756;2024-03-08T00:15:12;99448.03;;;-4.44;69.08
42671;BME280;28283;55.426;37.756;2024-03-08T00:20:14;99439.19;;;-4.56;69.65
42671;BME280;28283;55.426;37.756;2024-03-08T00:25:15;99429.78;;;-4.46;69.76
42671;BME280;28283;55.426;37.756;2024-03-08T00:30:16;99431.03;;;-4.38;69.68
42671;BME280;28283;55.426;37.756;2024-03-08T00:35:16;99429.47;;;-4.28;69.46
42671;BME280;28283;55.426;37.756;2024-03-08T00:40:18;99419.91;;;-4.29;69.30
42671;BME280;28283;55.426;37.756;2024-03-08T00:45:18;99421.06;;;-4.33;69.35
42671;BME280;28283;55.426;37.756;2024-03-08T00:50:19;99420.63;;;-4.40;69.74
42671;BME280;28283;55.426;37.756;2024-03-08T00:55:19;99413.28;;;-4.48;69.55
42671;BME280;28283;55.426;37.756;2024-03-08T01:00:20;99412.75;;;-4.53;69.79
42671;BME280;28283;55.426;37.756;2024-03-08T01:05:22;99404.16;;;-4.55;70.21
42671;BME280;28283;55.426;37.756;2024-03-08T01:10:24;99405.41;;;-4.61;70.21
42671;BME280;28283;55.426;37.756;2024-03-08T01:15:25;99395.31;;;-4.67;70.36
42671;BME280;28283;55.426;37.756;2024-03-08T01:20:25;99386.00;;;-4.71;70.32
42671;BME280;28283;55.426;37.756;2024-03-08T01:25:25;99378.94;;;-4.83;70.79
42671;BME280;28283;55.426;37.756;2024-03-08T01:30:26;99367.81;;;-4.74;70.31
42671;BME280;28283;55.426;37.756;2024-03-08T01:35:26;99357.75;;;-4.80;70.24
42671;BME280;28283;55.426;37.756;2024-03-08T01:40:27;99365.09;;;-4.85;70.58
42671;BME280;28283;55.426;37.756;2024-03-08T01:45:28;99368.44;;;-4.96;70.78
42671;BME280;28283;55.426;37.756;2024-03-08T01:50:28;99370.22;;;-4.96;71.27
42671;BME280;28283;55.426;37.756;2024-03-08T01:55:28;99353.53;;;-4.95;71.28
42671;BME280;28283;55.426;37.756;2024-03-08T02:00:29;99355.22;;;-4.94;71.22
42671;BME280;28283;55.426;37.756;2024-03-08T02:05:30;99357.13;;;-4.96;71.07
42671;BME280;28283;55.426;37.756;2024-03-08T02:10:30;99349.25;;;-4.96;71.43
42671;BME280;28283;55.426;37.756;2024-03-08T02:20:51;99341.59;;;-5.00;70.80
42671;BME280;28283;55.426;37.756;2024-03-08T02:25:52;99346.91;;;-5.01;71.32
42671;BME280;28283;55.426;37.756;2024-03-08T02:30:53;99337.16;;;-4.99;70.86
42671;BME280;28283;55.426;37.756;2024-03-08T02:35:57;99330.06;;;-4.97;70.97
42671;BME280;28283;55.426;37.756;2024-03-08T02:40:57;99322.59;;;-5.03;70.93
42671;BME280;28283;55.426;37.756;2024-03-08T02:45:58;99322.28;;;-5.11;71.31
42671;BME280;28283;55.426;37.756;2024-03-08T02:50:58;99311.88;;;-5.26;71.38
42671;BME280;28283;55.426;37.756;2024-03-08T02:55:59;99322.22;;;-5.37;71.77
42671;BME280;28283;55.426;37.756;2024-03-08T03:00:59;99305.47;;;-5.34;72.25
42671;BME280;28283;55.426;37.756;2024-03-08T03:06:00;99310.16;;;-5.40;71.94
42671;BME280;28283;55.426;37.756;2024-03-08T03:11:01;99312.69;;;-5.38;72.46
42671;BME280;28283;55.426;37.756;2024-03-08T03:16:01;99299.34;;;-5.48;72.39
42671;BME280;28283;55.426;37.756;2024-03-08T03:21:03;99292.91;;;-5.57;72.98
42671;BME280;28283;55.426;37.756;2024-03-08T03:26:08;99288.81;;;-5.61;72.85
42671;BME280;28283;55.426;37.756;2024-03-08T03:31:08;99271.66;;;-5.65;72.38
42671;BME280;28283;55.426;37.756;2024-03-08T03:36:14;99269.19;;;-5.81;72.67
42671;BME280;28283;55.426;37.756;2024-03-08T03:41:16;99264.25;;;-5.72;73.30
42671;BME280;28283;55.426;37.756;2024-03-08T03:46:16;99265.81;;;-5.83;73.06
42671;BME280;28283;55.426;37.756;2024-03-08T03:51:17;99261.50;;;-5.84;73.49
42671;BME280;28283;55.426;37.756;2024-03-08T03:56:17;99254.34;;;-5.95;73.42
42671;BME280;28283;55.426;37.756;2024-03-08T04:01:18;99248.09;;;-5.92;73.98
42671;BME280;28283;55.426;37.756;2024-03-08T04:06:19;99239.91;;;-6.00;73.86
42671;BME280;28283;55.426;37.756;2024-03-08T04:11:20;99233.59;;;-6.10;74.41
42671;BME280;28283;55.426;37.756;2024-03-08T04:16:21;99246.75;;;-6.12;73.77
42671;BME280;28283;55.426;37.756;2024-03-08T04:21:21;99239.22;;;-6.17;74.00
42671;BME280;28283;55.426;37.756;2024-03-08T04:26:22;99234.81;;;-6.16;74.46
42671;BME280;28283;55.426;37.756;2024-03-08T04:31:22;99223.91;;;-6.23;74.62
42671;BME280;28283;55.426;37.756;2024-03-08T04:36:22;99208.31;;;-6.24;75.56
42671;BME280;28283;55.426;37.756;2024-03-08T04:41:25;99222.28;;;-6.11;74.93
42671;BME280;28283;55.426;37.756;2024-03-08T04:46:25;99240.47;;;-6.22;74.54
42671;BME280;28283;55.426;37.756;2024-03-08T04:51:25;99240.06;;;-6.16;75.27
42671;BME280;28283;55.426;37.756;2024-03-08T04:56:26;99222.56;;;-6.16;75.38
42671;BME280;28283;55.426;37.756;2024-03-08T05:01:27;99231.38;;;-6.17;75.71
42671;BME280;28283;55.426;37.756;2024-03-08T05:06:27;99232.59;;;-6.22;76.59
42671;BME280;28283;55.426;37.756;2024-03-08T05:11:29;99231.66;;;-6.21;76.69
42671;BME280;28283;55.426;37.756;2024-03-08T05:16:29;99232.75;;;-6.11;76.32
42671;BME280;28283;55.426;37.756;2024-03-08T05:21:29;99226.28;;;-6.05;76.80
42671;BME280;28283;55.426;37.756;2024-03-08T05:26:30;99222.66;;;-6.03;76.86
42671;BME280;28283;55.426;37.756;2024-03-08T05:31:31;99214.38;;;-5.97;77.94
42671;BME280;28283;55.426;37.756;2024-03-08T05:36:36;99220.44;;;-5.96;78.14
42671;BME280;28283;55.426;37.756;2024-03-08T05:41:36;99217.19;;;-5.87;77.31
42671;BME280;28283;55.426;37.756;2024-03-08T05:46:37;99203.72;;;-5.81;78.05
42671;BME280;28283;55.426;37.756;2024-03-08T05:51:38;99197.94;;;-5.86;77.78
42671;BME280;28283;55.426;37.756;2024-03-08T05:56:39;99192.44;;;-5.68;77.41
42671;BME280;28283;55.426;37.756;2024-03-08T06:01:43;99194.22;;;-5.69;78.04
42671;BME280;28283;55.426;37.756;2024-03-08T06:06:46;99193.28;;;-5.68;78.42
42671;BME280;28283;55.426;37.756;2024-03-08T06:11:47;99212.16;;;-5.63;78.50
42671;BME280;28283;55.426;37.756;2024-03-08T06:16:47;99212.06;;;-5.61;78.83
42671;BME280;28283;55.426;37.756;2024-03-08T06:21:50;99216.03;;;-5.56;78.68
42671;BME280;28283;55.426;37.756;2024-03-08T06:26:50;99218.75;;;-5.57;79.71
42671;BME280;28283;55.426;37.756;2024-03-08T06:31:51;99214.91;;;-5.39;79.37
42671;BME280;28283;55.426;37.756;2024-03-08T06:36:51;99200.66;;;-5.34;79.23
42671;BME280;28283;55.426;37.756;2024-03-08T06:41:52;99206.13;;;-5.38;79.72
42671;BME280;28283;55.426;37.756;2024-03-08T06:46:53;99204.03;;;-5.32;79.71
42671;BME280;28283;55.426;37.756;2024-03-08T06:51:53;99208.63;;;-5.23;80.36
42671;BME280;28283;55.426;37.756;2024-03-08T06:56:54;99212.31;;;-5.13;79.61
42671;BME280;28283;55.426;37.756;2024-03-08T07:01:54;99209.88;;;-5.03;79.85
42671;BME280;28283;55.426;37.756;2024-03-08T07:06:58;99213.47;;;-5.04;79.82
42671;BME280;28283;55.426;37.756;2024-03-08T07:11:58;99215.22;;;-5.05;80.46
42671;BME280;28283;55.426;37.756;2024-03-08T07:16:59;99216.09;;;-4.91;79.96
42671;BME280;28283;55.426;37.756;2024-03-08T07:21:59;99212.81;;;-4.82;79.93
42671;BME280;28283;55.426;37.756;2024-03-08T07:26:59;99200.34;;;-4.78;79.90
42671;BME280;28283;55.426;37.756;2024-03-08T07:32:00;99204.81;;;-4.68;79.39
42671;BME280;28283;55.426;37.756;2024-03-08T07:37:00;99196.94;;;-4.55;79.21
42671;BME280;28283;55.426;37.756;2024-03-08T07:42:01;99193.84;;;-4.49;79.01
42671;BME280;28283;55.426;37.756;2024-03-08T07:47:01;99187.47;;;-4.45;78.92
42671;BME280;28283;55.426;37.756;2024-03-08T07:52:02;99199.19;;;-4.37;78.95
42671;BME280;28283;55.426;37.756;2024-03-08T07:57:04;99191.69;;;-4.31;78.98
42671;BME280;28283;55.426;37.756;2024-03-08T08:02:07;99192.91;;;-4.11;78.01
42671;BME280;28283;55.426;37.756;2024-03-08T08:07:07;99184.25;;;-4.00;77.07
42671;BME280;28283;55.426;37.756;2024-03-08T08:12:10;99178.59;;;-4.07;77.82
42671;BME280;28283;55.426;37.756;2024-03-08T08:17:12;99184.63;;;-3.93;77.72
42671;BME280;28283;55.426;37.756;2024-03-08T08:22:12;99173.94;;;-3.79;77.88
42671;BME280;28283;55.426;37.756;2024-03-08T08:27:12;99170.75;;;-3.71;77.77
42671;BME280;28283;55.426;37.756;2024-03-08T08:32:14;99173.41;;;-3.49;76.67
42671;BME280;28283;55.426;37.756;2024-03-08T08:37:15;99165.72;;;-3.28;76.03
42671;BME280;28283;55.426;37.756;2024-03-08T08:42:16;99169.53;;;-3.20;76.33
42671;BME280;28283;55.426;37.756;2024-03-08T08:47:17;99174.69;;;-3.19;76.31
42671;BME280;28283;55.426;37.756;2024-03-08T08:52:18;99166.06;;;-2.98;75.68
42671;BME280;28283;55.426;37.756;2024-03-08T08:57:20;99180.44;;;-2.91;74.68
42671;BME280;28283;55.426;37.756;2024-03-08T09:02:20;99175.28;;;-2.93;75.03
42671;BME280;28283;55.426;37.756;2024-03-08T09:07:21;99171.81;;;-2.71;74.81
42671;BME280;28283;55.426;37.756;2024-03-08T09:12:22;99175.66;;;-2.63;74.10
42671;BME280;28283;55.426;37.756;2024-03-08T09:17:22;99177.75;;;-2.46;73.80
42671;BME280;28283;55.426;37.756;2024-03-08T09:22:23;99155.03;;;-2.47;73.65
42671;BME280;28283;55.426;37.756;2024-03-08T09:27:23;99162.91;;;-2.36;73.75
42671;BME280;28283;55.426;37.756;2024-03-08T09:32:24;99150.28;;;-2.09;72.99
42671;BME280;28283;55.426;37.756;2024-03-08T09:37:24;99158.06;;;-2.19;72.86
42671;BME280;28283;55.426;37.756;2024-03-08T09:42:25;99144.72;;;-1.95;72.77
42671;BME280;28283;55.426;37.756;2024-03-08T09:47:26;99157.50;;;-1.90;72.88
42671;BME280;28283;55.426;37.756;2024-03-08T09:52:33;99155.59;;;-1.67;71.30
42671;BME280;28283;55.426;37.756;2024-03-08T09:57:34;99163.47;;;-1.88;72.16
42671;BME280;28283;55.426;37.756;2024-03-08T10:02:36;99153.72;;;-1.77;72.76
42671;BME280;28283;55.426;37.756;2024-03-08T10:07:36;99155.41;;;-1.55;72.05
42671;BME280;28283;55.426;37.756;2024-03-08T10:12:40;99135.34;;;-1.46;71.87
42671;BME280;28283;55.426;37.756;2024-03-08T10:17:41;99142.44;;;-1.46;71.65
42671;BME280;28283;55.426;37.756;2024-03-08T10:22:41;99129.44;;;-1.38;71.14
42671;BME280;28283;55.426;37.756;2024-03-08T10:27:44;99138.56;;;-1.42;71.21
42671;BME280;28283;55.426;37.756;2024-03-08T10:32:45;99135.91;;;-1.42;71.95
42671;BME280;28283;55.426;37.756;2024-03-08T10:37:46;99150.59;;;-1.28;71.73
42671;BME280;28283;55.426;37.756;2024-03-08T10:42:54;99125.81;;;-1.16;71.17
42671;BME280;28283;55.426;37.756;2024-03-08T10:53:05;99117.53;;;-1.02;71.42
42671;BME280;28283;55.426;37.756;2024-03-08T10:58:06;99136.56;;;-0.98;70.81
42671;BME280;28283;55.426;37.756;2024-03-08T11:03:09;99131.19;;;-0.87;71.06
42671;BME280;28283;55.426;37.756;2024-03-08T11:08:30;99127.19;;;-0.81;71.24
42671;BME280;28283;55.426;37.756;2024-03-08T11:13:40;99124.72;;;-0.73;70.34
42671;BME280;28283;55.426;37.756;2024-03-08T11:18:42;99126.78;;;-0.77;70.03
42671;BME280;28283;55.426;37.756;2024-03-08T11:23:42;99112.59;;;-0.85;70.35
42671;BME280;28283;55.426;37.756;2024-03-08T11:28:43;99115.16;;;-1.05;71.47
42671;BME280;28283;55.426;37.756;2024-03-08T11:33:44;99135.59;;;-0.97;72.17
42671;BME280;28283;55.426;37.756;2024-03-08T11:38:46;99124.09;;;-0.96;71.61
42671;BME280;28283;55.426;37.756;2024-03-08T11:44:02;99137.16;;;-0.85;71.12
42671;BME280;28283;55.426;37.756;2024-03-08T11:49:05;99135.06;;;-0.91;71.78
42671;BME280;28283;55.426;37.756;2024-03-08T11:54:06;99128.75;;;-0.79;70.98
42671;BME280;28283;55.426;37.756;2024-03-08T11:59:10;99113.84;;;-0.80;71.09
42671;BME280;28283;55.426;37.756;2024-03-08T12:04:12;99121.47;;;-0.86;71.74
42671;BME280;28283;55.426;37.756;2024-03-08T12:09:13;99136.53;;;-0.77;72.06
42671;BME280;28283;55.426;37.756;2024-03-08T12:14:15;99121.97;;;-0.62;71.32
42671;BME280;28283;55.426;37.756;2024-03-08T12:19:15;99130.44;;;-0.58;71.41
42671;BME280;28283;55.426;37.756;2024-03-08T12:24:16;99121.28;;;-0.54;71.66
42671;BME280;28283;55.426;37.756;2024-03-08T12:29:24;99137.97;;;-0.53;71.69
42671;BME280;28283;55.426;37.756;2024-03-08T12:34:24;99123.25;;;-0.36;70.73
42671;BME280;28283;55.426;37.756;2024-03-08T12:39:27;99129.38;;;-0.46;71.50
42671;BME280;28283;55.426;37.756;2024-03-08T12:44:27;99132.69;;;-0.44;71.96
42671;BME280;28283;55.426;37.756;2024-03-08T12:49:28;99112.84;;;-0.38;71.63
42671;BME280;28283;55.426;37.756;2024-03-08T12:54:30;99119.38;;;-0.32;70.79
42671;BME280;28283;55.426;37.756;2024-03-08T12:59:31;99113.97;;;-0.41;70.75
42671;BME280;28283;55.426;37.756;2024-03-08T13:04:32;99118.81;;;-0.46;71.40
42671;BME280;28283;55.426;37.756;2024-03-08T13:09:32;99124.66;;;-0.42;71.21
42671;BME280;28283;55.426;37.756;2024-03-08T13:14:37;99123.81;;;-0.43;70.95
42671;BME280;28283;55.426;37.756;2024-03-08T13:19:38;99144.91;;;-0.52;71.80
42671;BME280;28283;55.426;37.756;2024-03-08T13:24:39;99146.47;;;-0.50;72.09
42671;BME280;28283;55.426;37.756;2024-03-08T13:29:40;99126.59;;;-0.34;71.87
42671;BME280;28283;55.426;37.756;2024-03-08T13:34:41;99123.00;;;-0.24;70.72
42671;BME280;28283;55.426;37.756;2024-03-08T13:39:42;99142.75;;;-0.37;71.34
42671;BME280;28283;55.426;37.756;2024-03-08T13:44:45;99143.44;;;-0.35;71.23
42671;BME280;28283;55.426;37.756;2024-03-08T13:49:46;99145.94;;;-0.24;70.32
42671;BME280;28283;55.426;37.756;2024-03-08T13:54:46;99139.97;;;-0.26;71.01
42671;BME280;28283;55.426;37.756;2024-03-08T13:59:48;99132.34;;;-0.20;70.57
42671;BME280;28283;55.426;37.756;2024-03-08T14:04:50;99138.28;;;-0.27;71.02
42671;BME280;28283;55.426;37.756;2024-03-08T14:09:51;99141.63;;;-0.25;70.50
42671;BME280;28283;55.426;37.756;2024-03-08T14:14:53;99120.34;;;-0.24;70.15
42671;BME280;28283;55.426;37.756;2024-03-08T14:19:56;99112.44;;;-0.33;70.86
42671;BME280;28283;55.426;37.756;2024-03-08T14:24:56;99123.44;;;-0.28;70.63
42671;BME280;28283;55.426;37.756;2024-03-08T14:29:57;99124.66;;;-0.32;70.67
42671;BME280;28283;55.426;37.756;2024-03-08T14:34:58;99148.03;;;-0.37;71.02
42671;BME280;28283;55.426;37.756;2024-03-08T14:39:59;99143.31;;;-0.34;70.94
42671;BME280;28283;55.426;37.756;2024-03-08T14:44:59;99144.97;;;-0.33;70.85
42671;BME280;28283;55.426;37.756;2024-03-08T14:50:00;99145.78;;;-0.42;71.02
42671;BME280;28283;55.426;37.756;2024-03-08T14:55:00;99145.50;;;-0.39;71.00
42671;BME280;28283;55.426;37.756;2024-03-08T15:00:03;99158.59;;;-0.28;70.62
42671;BME280;28283;55.426;37.756;2024-03-08T15:05:07;99148.84;;;-0.37;70.53
42671;BME280;28283;55.426;37.756;2024-03-08T15:10:11;99149.81;;;-0.38;70.79
42671;BME280;28283;55.426;37.756;2024-03-08T15:15:14;99155.06;;;-0.48;71.20
42671;BME280;28283;55.426;37.756;2024-03-08T15:20:18;99155.78;;;-0.46;71.18
42671;BME280;28283;55.426;37.756;2024-03-08T15:25:24;99164.41;;;-0.44;70.94
42671;BME280;28283;55.426;37.756;2024-03-08T15:30:27;99161.75;;;-0.44;70.85
42671;BME280;28283;55.426;37.756;2024-03-08T15:35:29;99164.66;;;-0.47;70.78
42671;BME280;28283;55.426;37.756;2024-03-08T15:40:32;99164.25;;;-0.42;70.57
42671;BME280;28283;55.426;37.756;2024-03-08T15:45:35;99165.78;;;-0.40;70.28
42671;BME280;28283;55.426;37.756;2024-03-08T15:50:36;99162.31;;;-0.50;70.66
42671;BME280;28283;55.426;37.756;2024-03-08T15:55:37;99143.25;;;-0.53;70.99
42671;BME280;28283;55.426;37.756;2024-03-08T16:00:41;99157.03;;;-0.50;70.98
42671;BME280;28283;55.426;37.756;2024-03-08T16:05:48;99167.16;;;-0.55;71.29
42671;BME280;28283;55.426;37.756;2024-03-08T16:10:52;99160.50;;;-0.49;71.37
42671;BME280;28283;55.426;37.756;2024-03-08T16:15:56;99181.59;;;-0.59;71.53
42671;BME280;28283;55.426;37.756;2024-03-08T16:20:58;99168.81;;;-0.54;71.80
42671;BME280;28283;55.426;37.756;2024-03-08T16:25:58;99183.25;;;-0.58;71.95
42671;BME280;28283;55.426;37.756;2024-03-08T16:30:59;99061.81;;;-1.18;72.13
42671;BME280;28283;55.426;37.756;2024-03-08T16:36:00;99164.94;;;-0.50;72.32
42671;BME280;28283;55.426;37.756;2024-03-08T16:41:02;99181.91;;;-0.43;72.48
42671;BME280;28283;55.426;37.756;2024-03-08T16:46:04;99164.81;;;-0.39;72.16
42671;BME280;28283;55.426;37.756;2024-03-08T16:51:04;99172.00;;;-0.50;72.73
42671;BME280;28283;55.426;37.756;2024-03-08T16:56:08;99171.88;;;-0.49;72.75
42671;BME280;28283;55.426;37.756;2024-03-08T17:01:11;99167.16;;;-0.55;72.93
42671;BME280;28283;55.426;37.756;2024-03-08T17:06:12;99162.81;;;-0.56;73.28
42671;BME280;28283;55.426;37.756;2024-03-08T17:11:18;99172.53;;;-0.66;73.60
42671;BME280;28283;55.426;37.756;2024-03-08T17:16:18;99170.16;;;-0.69;73.47
42671;BME280;28283;55.426;37.756;2024-03-08T17:21:24;99160.00;;;-0.74;73.64
42671;BME280;28283;55.426;37.756;2024-03-08T17:26:25;99171.22;;;-0.82;73.62
42671;BME280;28283;55.426;37.756;2024-03-08T17:31:25;99166.19;;;-0.85;73.68
42671;BME280;28283;55.426;37.756;2024-03-08T17:36:27;99162.16;;;-0.89;74.03
42671;BME280;28283;55.426;37.756;2024-03-08T17:41:29;99168.97;;;-0.86;73.81
42671;BME280;28283;55.426;37.756;2024-03-08T17:46:30;99170.06;;;-0.89;74.24
42671;BME280;28283;55.426;37.756;2024-03-08T17:51:30;99177.81;;;-0.97;74.42
42671;BME280;28283;55.426;37.756;2024-03-08T17:56:31;99178.25;;;-0.92;74.14
42671;BME280;28283;55.426;37.756;2024-03-08T18:01:32;99175.44;;;-1.00;74.65
42671;BME280;28283;55.426;37.756;2024-03-08T18:06:34;99168.94;;;-0.96;74.91
42671;BME280;28283;55.426;37.756;2024-03-08T18:11:37;99176.59;;;-0.93;74.69
42671;BME280;28283;55.426;37.756;2024-03-08T18:16:37;99162.84;;;-0.97;74.97
42671;BME280;28283;55.426;37.756;2024-03-08T18:21:38;99179.50;;;-0.96;74.88
42671;BME280;28283;55.426;37.756;2024-03-08T18:26:39;99172.25;;;-1.04;74.99
42671;BME280;28283;55.426;37.756;2024-03-08T18:31:41;99162.06;;;-1.08;74.95
42671;BME280;28283;55.426;37.756;2024-03-08T18:36:42;99174.63;;;-1.22;74.84
42671;BME280;28283;55.426;37.756;2024-03-08T18:41:43;99172.25;;;-1.25;75.24
42671;BME280;28283;55.426;37.756;2024-03-08T18:46:44;99150.41;;;-1.58;75.78
42671;BME280;28283;55.426;37.756;2024-03-08T18:51:44;99173.28;;;-1.37;75.53
42671;BME280;28283;55.426;37.756;2024-03-08T18:56:46;99174.28;;;-1.38;75.67
42671;BME280;28283;55.426;37.756;2024-03-08T19:01:47;99179.25;;;-1.35;75.43
42671;BME280;28283;55.426;37.756;2024-03-08T19:07:00;99182.31;;;-1.40;75.48
42671;BME280;28283;55.426;37.756;2024-03-08T19:12:03;99179.72;;;-1.51;76.00
42671;BME280;28283;55.426;37.756;2024-03-08T19:17:08;99175.66;;;-1.55;76.14
42671;BME280;28283;55.426;37.756;2024-03-08T19:22:12;99175.28;;;-1.50;76.21
42671;BME280;28283;55.426;37.756;2024-03-08T19:27:13;99177.13;;;-1.62;76.43
42671;BME280;28283;55.426;37.756;2024-03-08T19:32:16;99183.06;;;-1.70;77.08
42671;BME280;28283;55.426;37.756;2024-03-08T19:37:16;99169.16;;;-1.72;77.04
42671;BME280;28283;55.426;37.756;2024-03-08T19:42:17;99171.00;;;-1.84;77.51
42671;BME280;28283;55.426;37.756;2024-03-08T19:47:19;99175.81;;;-1.89;77.75
42671;BME280;28283;55.426;37.756;2024-03-08T19:52:23;99176.91;;;-1.92;77.71
42671;BME280;28283;55.426;37.756;2024-03-08T19:57:44;99175.03;;;-2.01;77.59
42671;BME280;28283;55.426;37.756;2024-03-08T20:02:47;99176.09;;;-2.03;77.79
42671;BME280;28283;55.426;37.756;2024-03-08T20:07:48;99168.59;;;-2.08;77.71
42671;BME280;28283;55.426;37.756;2024-03-08T20:12:52;99163.44;;;-2.09;78.27
42671;BME280;28283;55.426;37.756;2024-03-08T20:17:53;99170.63;;;-2.12;78.08
42671;BME280;28283;55.426;37.756;2024-03-08T20:22:54;99166.38;;;-2.24;78.17
42671;BME280;28283;55.426;37.756;2024-03-08T20:27:55;99168.88;;;-2.22;78.64
42671;BME280;28283;55.426;37.756;2024-03-08T20:33:00;99157.75;;;-2.26;78.85
42671;BME280;28283;55.426;37.756;2024-03-08T20:38:10;99166.84;;;-2.19;77.81
42671;BME280;28283;55.426;37.756;2024-03-08T20:43:11;99159.69;;;-2.39;77.99
42671;BME280;28283;55.426;37.756;2024-03-08T20:48:14;99158.81;;;-2.28;77.95
42671;BME280;28283;55.426;37.756;2024-03-08T20:53:15;99162.09;;;-2.36;78.37
42671;BME280;28283;55.426;37.756;2024-03-08T20:58:15;99152.38;;;-2.36;78.01
42671;BME280;28283;55.426;37.756;2024-03-08T21:03:17;99162.31;;;-2.39;77.72
42671;BME280;28283;55.426;37.756;2024-03-08T21:08:19;99158.47;;;-2.35;76.69
42671;BME280;28283;55.426;37.756;2024-03-08T21:13:24;99164.75;;;-2.47;76.87
42671;BME280;28283;55.426;37.756;2024-03-08T21:18:25;99167.63;;;-2.62;77.67
42671;BME280;28283;55.426;37.756;2024-03-08T21:23:26;99166.78;;;-2.51;77.72
42671;BME280;28283;55.426;37.756;2024-03-08T21:28:26;99177.88;;;-2.36;77.27
42671;BME280;28283;55.426;37.756;2024-03-08T21:33:30;99174.63;;;-2.28;77.58
42671;BME280;28283;55.426;37.756;2024-03-08T21:38:30;99179.53;;;-2.24;76.85
42671;BME280;28283;55.426;37.756;2024-03-08T21:43:35;99180.19;;;-2.11;76.68
42671;BME280;28283;55.426;37.756;2024-03-08T21:48:36;99177.78;;;-2.02;75.93
42671;BME280;28283;55.426;37.756;2024-03-08T21:53:36;99181.19;;;-1.90;76.75
42671;BME280;28283;55.426;37.756;2024-03-08T21:58:37;99176.63;;;-1.88;75.72
42671;BME280;28283;55.426;37.756;2024-03-08T22:03:38;99178.41;;;-1.78;76.04
42671;BME280;28283;55.426;37.756;2024-03-08T22:08:38;99173.72;;;-1.53;74.55
42671;BME280;28283;55.426;37.756;2024-03-08T22:13:41;99183.94;;;-1.81;73.80
42671;BME280;28283;55.426;37.756;2024-03-08T22:18:42;99185.28;;;-1.86;74.12
42671;BME280;28283;55.426;37.756;2024-03-08T22:23:42;99183.06;;;-1.81;74.53
42671;BME280;28283;55.426;37.756;2024-03-08T22:28:43;99184.47;;;-1.66;73.75
42671;BME280;28283;55.426;37.756;2024-03-08T22:33:44;99186.53;;;-1.48;72.86
42671;BME280;28283;55.426;37.756;2024-03-08T22:38:46;99188.41;;;-1.39;70.97
42671;BME280;28283;55.426;37.756;2024-03-08T22:43:47;99191.69;;;-1.47;70.68
42671;BME280;28283;55.426;37.756;2024-03-08T22:48:47;99190.34;;;-1.41;70.57
42671;BME280;28283;55.426;37.756;2024-03-08T22:53:49;99188.59;;;-1.52;70.82
42671;BME280;28283;55.426;37.756;2024-03-08T22:58:49;99198.41;;;-1.75;71.55
42671;BME280;28283;55.426;37.756;2024-03-08T23:03:50;99190.66;;;-1.88;72.37
42671;BME280;28283;55.426;37.756;2024-03-08T23:08:52;99190.66;;;-1.56;71.15
42671;BME280;28283;55.426;37.756;2024-03-08T23:13:53;99197.75;;;-1.67;71.11
42671;BME280;28283;55.426;37.756;2024-03-08T23:18:56;99194.66;;;-1.94;72.17
42671;BME280;28283;55.426;37.756;2024-03-08T23:23:57;99193.25;;;-1.77;72.34
